createdAt,value
2022-11-04T00:02:18.891Z,5.35
2022-11-04T00:04:47.328Z,6.03
2022-11-04T00:07:29.766Z,5.45
2022-11-04T00:09:58.188Z,6.10
2022-11-04T00:12:25.596Z,5.35
2022-11-04T00:15:17.112Z,5.85
2022-11-04T00:17:45.217Z,5.47
2022-11-04T00:20:31.142Z,6.40
2022-11-04T00:23:17.192Z,6.20
2022-11-04T00:26:03.682Z,6.13
2022-11-04T00:28:44.706Z,5.95
2022-11-04T00:31:32.184Z,6.10
2022-11-04T00:34:00.957Z,6.82
2022-11-04T00:36:30.098Z,6.90
2022-11-04T00:38:59.353Z,6.43
2022-11-04T00:41:28.380Z,6.75
2022-11-04T00:43:59.345Z,6.28
2022-11-04T00:46:31.620Z,6.13
2022-11-04T00:49:01.140Z,6.82
2022-11-04T00:51:29.987Z,7.03
2022-11-04T00:53:59.389Z,6.65
2022-11-04T00:56:28.048Z,6.80
2022-11-04T00:58:56.436Z,6.95
2022-11-04T01:01:25.209Z,6.93
2022-11-04T01:03:55.575Z,6.20
2022-11-04T01:06:27.527Z,6.28
2022-11-04T01:09:00.484Z,7.65
2022-11-04T01:11:31.147Z,7.22
2022-11-04T01:13:59.820Z,7.60
2022-11-04T01:16:29.687Z,6.97
2022-11-04T01:19:00.406Z,7.25
2022-11-04T01:21:29.104Z,7.20
2022-11-04T01:23:58.063Z,6.63
2022-11-04T01:26:27.495Z,6.82
2022-11-04T01:28:57.437Z,6.45
2022-11-04T01:31:27.566Z,6.95
2022-11-04T01:33:57.381Z,6.88
2022-11-04T01:36:29.129Z,6.45
2022-11-04T01:38:58.139Z,6.25
2022-11-04T01:41:30.276Z,6.90
2022-11-04T01:44:00.633Z,6.20
2022-11-04T01:46:38.826Z,6.70
2022-11-04T01:49:25.395Z,7.43
2022-11-04T01:52:00.307Z,7.18
2022-11-04T01:54:30.268Z,7.15
2022-11-04T01:57:02.313Z,7.22
2022-11-04T01:59:35.954Z,7.30
2022-11-04T02:02:05.364Z,7.75
2022-11-04T02:04:35.246Z,7.15
2022-11-04T02:07:10.167Z,7.40
2022-11-04T02:09:41.208Z,6.10
2022-11-04T02:12:27.576Z,7.35
2022-11-04T02:14:57.332Z,7.07
2022-11-04T02:17:39.927Z,7.13
2022-11-04T02:20:36.328Z,7.15
2022-11-04T02:23:34.217Z,7.03
2022-11-04T02:26:39.915Z,7.10
2022-11-04T02:29:42.385Z,6.75
2022-11-04T02:32:17.969Z,6.38
2022-11-04T02:34:57.284Z,6.82
2022-11-04T02:37:37.739Z,7.70
2022-11-04T02:40:20.758Z,7.18
2022-11-04T02:42:59.061Z,7.13
2022-11-04T02:45:39.429Z,7.13
2022-11-04T02:48:12.554Z,6.85
2022-11-04T02:50:46.928Z,7.57
2022-11-04T02:53:20.358Z,7.38
2022-11-04T02:55:52.447Z,6.88
2022-11-04T02:58:26.249Z,6.95
2022-11-04T03:00:59.316Z,7.00
2022-11-04T03:03:32.840Z,6.35
2022-11-04T03:06:04.705Z,6.00
2022-11-04T03:08:36.640Z,5.35
2022-11-04T03:11:10.312Z,5.78
2022-11-04T03:13:42.744Z,5.88
2022-11-04T03:16:17.335Z,5.60
2022-11-04T03:18:57.913Z,6.00
2022-11-04T03:21:28.901Z,5.53
2022-11-04T03:23:57.635Z,5.28
2022-11-04T03:26:31.673Z,4.65
2022-11-04T03:29:13.834Z,5.65
2022-11-04T03:31:50.702Z,5.70
2022-11-04T03:34:19.215Z,5.63
2022-11-04T03:36:48.185Z,5.53
2022-11-04T03:39:17.057Z,5.40
2022-11-04T03:41:51.012Z,5.35
2022-11-04T03:44:19.484Z,4.93
2022-11-04T03:46:49.969Z,4.88
2022-11-04T03:49:19.240Z,4.78
2022-11-04T03:51:47.768Z,5.18
2022-11-04T03:54:17.543Z,4.97
2022-11-04T03:57:07.970Z,4.72
2022-11-04T03:59:57.316Z,4.38
2022-11-04T04:02:41.287Z,5.20
2022-11-04T04:05:19.055Z,4.60
2022-11-04T04:07:54.225Z,5.20
2022-11-04T04:10:42.549Z,4.63
2022-11-04T04:13:23.664Z,4.30
2022-11-04T04:15:59.002Z,4.50
2022-11-04T04:18:35.880Z,4.13
2022-11-04T04:21:09.212Z,3.90
2022-11-04T04:23:57.143Z,4.22
2022-11-04T04:26:44.884Z,4.22
2022-11-04T04:29:15.257Z,4.80
2022-11-04T04:31:58.032Z,4.18
2022-11-04T04:34:30.511Z,4.85
2022-11-04T04:37:04.067Z,4.78
2022-11-04T04:39:58.333Z,4.60
2022-11-04T04:42:44.383Z,4.80
2022-11-04T04:45:23.030Z,5.07
2022-11-04T04:47:52.726Z,4.72
2022-11-04T04:50:24.085Z,4.80
2022-11-04T04:52:54.971Z,5.05
2022-11-04T04:55:24.064Z,4.78
2022-11-04T04:57:52.590Z,4.60
2022-11-04T05:00:22.808Z,4.15
2022-11-04T05:02:51.182Z,4.72
2022-11-04T05:05:20.275Z,4.50
2022-11-04T05:07:50.240Z,4.75
2022-11-04T05:10:19.598Z,4.53
2022-11-04T05:13:05.550Z,4.47
2022-11-04T05:15:34.177Z,4.35
2022-11-04T05:18:04.207Z,4.93
2022-11-04T05:20:34.407Z,4.55
2022-11-04T05:23:04.836Z,4.38
2022-11-04T05:25:33.655Z,4.38
2022-11-04T05:28:02.948Z,4.75
2022-11-04T05:30:31.551Z,4.22
2022-11-04T05:33:03.595Z,5.07
2022-11-04T05:35:34.636Z,4.35
2022-11-04T05:38:04.802Z,5.05
2022-11-04T05:40:33.277Z,4.18
2022-11-04T05:43:02.526Z,4.72
2022-11-04T05:45:32.338Z,4.93
2022-11-04T05:48:01.811Z,5.53
2022-11-04T05:50:31.566Z,6.43
2022-11-04T05:53:00.825Z,7.72
2022-11-04T05:55:30.878Z,8.20
2022-11-04T05:57:59.730Z,8.93
2022-11-04T06:00:29.509Z,8.77
2022-11-04T06:02:58.832Z,8.60
2022-11-04T06:05:28.056Z,8.40
2022-11-04T06:07:57.806Z,9.35
2022-11-04T06:10:27.520Z,9.30
2022-11-04T06:12:57.856Z,9.20
2022-11-04T06:15:26.572Z,8.60
2022-11-04T06:17:55.874Z,9.27
2022-11-04T06:20:24.443Z,9.32
2022-11-04T06:22:53.252Z,8.55
2022-11-04T06:25:21.969Z,9.52
2022-11-04T06:27:50.596Z,9.73
2022-11-04T06:30:20.788Z,8.85
2022-11-04T06:32:49.479Z,10.45
2022-11-04T06:35:18.117Z,9.73
2022-11-04T06:37:46.726Z,10.68
2022-11-04T06:40:15.491Z,10.88
2022-11-04T06:42:45.429Z,10.30
2022-11-04T06:45:13.976Z,11.30
2022-11-04T06:47:43.850Z,10.63
2022-11-04T06:50:15.149Z,11.63
2022-11-04T06:52:44.186Z,11.82
2022-11-04T06:55:12.904Z,11.20
2022-11-04T06:57:42.264Z,11.25
2022-11-04T07:00:12.453Z,11.52
2022-11-04T07:02:41.219Z,11.95
2022-11-04T07:05:12.348Z,11.38
2022-11-04T07:07:40.671Z,12.50
2022-11-04T07:10:10.105Z,11.85
2022-11-04T07:12:38.959Z,12.50
2022-11-04T07:15:09.396Z,12.45
2022-11-04T07:17:38.281Z,12.45
2022-11-04T07:20:08.659Z,13.93
2022-11-04T07:22:39.465Z,13.90
2022-11-04T07:25:11.315Z,14.13
2022-11-04T07:27:42.512Z,13.40
2022-11-04T07:30:13.286Z,13.80
2022-11-04T07:32:41.948Z,14.10
2022-11-04T07:35:11.648Z,13.88
2022-11-04T07:37:41.422Z,12.85
2022-11-04T07:40:12.518Z,13.23
2022-11-04T07:42:41.373Z,12.57
2022-11-04T07:45:10.536Z,12.45
2022-11-04T07:47:40.988Z,11.77
2022-11-04T07:50:13.759Z,10.25
2022-11-04T07:52:51.254Z,10.60
2022-11-04T07:55:20.560Z,10.77
2022-11-04T07:57:50.138Z,9.70
2022-11-04T08:00:19.282Z,9.35
2022-11-04T08:02:48.418Z,8.63
2022-11-04T08:05:19.328Z,8.32
2022-11-04T08:07:51.539Z,8.73
2022-11-04T08:10:20.159Z,8.40
2022-11-04T08:12:57.031Z,7.97
2022-11-04T08:15:29.895Z,8.00
2022-11-04T08:18:06.585Z,6.80
2022-11-04T08:20:36.925Z,5.68
2022-11-04T08:23:13.701Z,5.82
2022-11-04T08:25:42.155Z,6.20
2022-11-04T08:28:17.937Z,5.75
2022-11-04T08:30:57.549Z,6.00
2022-11-04T08:33:28.731Z,5.65
2022-11-04T08:36:06.411Z,5.22
2022-11-04T08:38:37.073Z,5.07
2022-11-04T08:41:09.134Z,4.93
2022-11-04T08:43:37.920Z,4.30
2022-11-04T08:46:09.241Z,4.43
2022-11-04T08:48:39.369Z,4.68
2022-11-04T08:51:12.636Z,4.40
2022-11-04T08:53:42.993Z,3.97
2022-11-04T08:56:17.802Z,4.05
2022-11-04T08:58:48.094Z,4.50
2022-11-04T09:01:17.925Z,4.45
2022-11-04T09:03:47.340Z,3.67
2022-11-04T09:06:20.613Z,4.05
2022-11-04T09:08:55.504Z,3.20
2022-11-04T09:11:24.197Z,3.70
2022-11-04T09:13:53.524Z,4.22
2022-11-04T09:16:22.381Z,4.20
2022-11-04T09:18:51.461Z,4.13
2022-11-04T09:21:22.165Z,3.90
2022-11-04T09:23:54.484Z,4.22
2022-11-04T09:26:24.519Z,4.22
2022-11-04T09:28:56.467Z,3.45
2022-11-04T09:31:40.410Z,2.47
2022-11-04T09:34:15.529Z,3.80
2022-11-04T09:36:45.730Z,3.92
2022-11-04T09:39:15.632Z,3.72
2022-11-04T09:42:11.084Z,3.45
2022-11-04T09:45:21.266Z,3.40
2022-11-04T09:47:44.673Z,2.80
2022-11-04T09:50:22.979Z,2.80
2022-11-04T09:53:06.029Z,2.30
2022-11-04T09:55:43.256Z,2.15
2022-11-04T09:58:15.309Z,2.80
2022-11-04T10:00:53.813Z,2.67
2022-11-04T10:03:38.870Z,2.80
2022-11-04T10:06:28.856Z,2.40
2022-11-04T10:09:15.895Z,2.38
2022-11-04T10:12:00.094Z,2.20
2022-11-04T10:14:44.011Z,2.40
2022-11-04T10:17:31.643Z,2.20
2022-11-04T10:20:33.033Z,1.90
2022-11-04T10:23:09.842Z,1.98
2022-11-04T10:25:49.349Z,1.83
2022-11-04T10:28:23.732Z,1.90
2022-11-04T10:30:53.964Z,1.80
2022-11-04T10:33:32.840Z,2.17
2022-11-04T10:36:13.617Z,2.05
2022-11-04T10:38:49.180Z,1.80
2022-11-04T11:06:30.561Z,1.70
2022-11-04T11:09:20.008Z,1.52
2022-11-04T11:26:42.006Z,1.60
2022-11-04T11:42:13.164Z,1.88
2022-11-04T11:47:47.042Z,1.80
2022-11-04T11:50:24.821Z,1.77
2022-11-04T12:45:17.710Z,2.42
2022-11-04T12:47:48.201Z,1.60
2022-11-04T12:50:49.561Z,1.70
2022-11-04T12:53:30.286Z,1.52
2022-11-04T12:56:07.269Z,1.38
2022-11-04T12:59:07.183Z,1.30
2022-11-04T13:01:43.514Z,1.63
2022-11-04T13:04:17.052Z,1.83
2022-11-04T13:06:50.671Z,2.20
2022-11-04T13:09:28.459Z,1.67
2022-11-04T13:12:04.151Z,1.60
2022-11-04T13:14:39.685Z,1.17
2022-11-04T13:17:15.236Z,1.48
2022-11-04T13:19:50.162Z,1.63
2022-11-04T13:22:24.735Z,1.40
2022-11-04T13:25:00.594Z,1.83
2022-11-04T13:27:34.651Z,1.70
2022-11-04T13:30:09.594Z,1.75
2022-11-04T13:32:55.135Z,1.40
2022-11-04T13:35:36.901Z,1.75
2022-11-04T13:38:12.882Z,1.50
2022-11-04T13:40:52.809Z,1.40
2022-11-04T13:43:41.918Z,1.30
2022-11-04T13:46:24.211Z,1.00
2022-11-04T13:49:02.411Z,1.52
2022-11-04T13:51:44.894Z,1.40
2022-11-04T13:54:29.651Z,1.40
2022-11-04T13:57:07.914Z,1.20
2022-11-04T13:59:37.502Z,1.30
2022-11-04T14:02:39.257Z,1.60
2022-11-04T14:06:05.387Z,1.45
2022-11-04T14:08:35.998Z,1.52
2022-11-04T14:11:10.463Z,1.98
2022-11-04T14:14:06.316Z,1.45
2022-11-04T14:16:47.463Z,2.00
2022-11-04T14:19:58.813Z,1.70
2022-11-04T14:22:34.012Z,1.70
2022-11-04T14:25:21.315Z,1.45
2022-11-04T14:27:51.954Z,1.60
2022-11-04T14:30:37.131Z,1.60
2022-11-04T14:33:19.239Z,1.60
2022-11-04T14:35:49.251Z,1.50
2022-11-04T14:38:28.604Z,1.48
2022-11-04T14:41:22.893Z,1.70
2022-11-04T14:43:52.233Z,1.52
2022-11-04T14:46:24.074Z,1.85
2022-11-04T14:48:56.002Z,1.83
2022-11-04T14:51:28.510Z,1.63
2022-11-04T14:54:05.427Z,1.50
2022-11-04T14:56:36.127Z,1.38
2022-11-04T14:59:07.272Z,1.60
2022-11-04T15:01:38.690Z,2.58
2022-11-04T15:04:19.870Z,2.63
2022-11-04T15:06:56.250Z,2.08
2022-11-04T15:09:27.072Z,2.33
2022-11-04T15:12:25.072Z,2.00
2022-11-04T15:14:54.265Z,3.10
2022-11-04T15:17:25.768Z,2.03
2022-11-04T15:19:58.076Z,2.10
2022-11-04T15:22:26.621Z,2.92
2022-11-04T15:24:55.184Z,1.83
2022-11-04T15:27:30.370Z,1.98
2022-11-04T15:30:00.769Z,1.83
2022-11-04T15:32:30.230Z,1.60
2022-11-04T15:34:59.892Z,1.88
2022-11-04T15:37:30.891Z,1.70
2022-11-04T15:40:00.925Z,1.90
2022-11-04T15:42:40.924Z,1.90
2022-11-04T15:45:33.416Z,2.13
2022-11-04T15:48:34.265Z,1.70
2022-11-04T15:51:21.777Z,1.70
2022-11-04T15:54:29.929Z,2.13
2022-11-04T16:17:22.709Z,2.20
2022-11-04T16:30:56.763Z,8.13
2022-11-04T16:33:27.046Z,3.80
2022-11-04T16:35:56.005Z,4.90
2022-11-04T16:38:24.266Z,7.32
2022-11-04T16:40:53.122Z,7.47
2022-11-04T16:43:23.282Z,7.20
2022-11-04T16:45:54.103Z,5.40
2022-11-04T16:48:25.072Z,3.50
2022-11-04T16:50:55.041Z,3.80
2022-11-04T16:53:23.461Z,3.10
2022-11-04T16:55:52.745Z,2.75
2022-11-04T16:58:21.496Z,3.70
2022-11-04T17:00:50.190Z,3.05
2022-11-04T17:03:22.524Z,2.85
2022-11-04T17:05:51.973Z,3.90
2022-11-04T17:08:22.469Z,2.95
2022-11-04T17:10:51.244Z,3.22
2022-11-04T17:13:20.155Z,3.03
2022-11-04T17:15:51.588Z,3.33
2022-11-04T17:18:20.828Z,3.20
2022-11-04T17:20:52.188Z,3.17
2022-11-04T17:23:23.473Z,3.67
2022-11-04T17:25:53.102Z,3.90
2022-11-04T17:28:21.773Z,3.40
2022-11-04T17:30:50.830Z,3.70
2022-11-04T17:33:21.294Z,3.00
2022-11-04T17:35:52.623Z,3.13
2022-11-04T17:38:24.666Z,3.30
2022-11-04T17:41:10.243Z,2.63
2022-11-04T17:43:56.298Z,4.05
2022-11-04T17:46:38.398Z,3.33
2022-11-04T17:49:11.452Z,3.58
2022-11-04T17:51:41.207Z,3.92
2022-11-04T17:54:11.961Z,3.78
2022-11-04T17:56:41.932Z,3.10
2022-11-04T17:59:13.370Z,3.42
2022-11-04T18:01:43.620Z,3.45
2022-11-04T18:04:15.681Z,4.18
2022-11-04T18:06:44.850Z,5.60
2022-11-04T18:09:15.841Z,6.65
2022-11-04T18:12:02.488Z,4.50
2022-11-04T18:14:34.122Z,4.15
2022-11-04T18:17:03.352Z,4.05
2022-11-04T18:19:32.009Z,3.97
2022-11-04T18:22:00.703Z,3.70
2022-11-04T18:24:30.778Z,6.68
2022-11-04T18:27:01.113Z,6.55
2022-11-04T18:29:29.502Z,5.82
2022-11-04T18:31:57.927Z,5.78
2022-11-04T18:34:27.011Z,5.47
2022-11-04T18:36:56.531Z,9.75
2022-11-04T18:39:25.166Z,5.30
2022-11-04T18:41:55.408Z,5.53
2022-11-04T18:44:24.507Z,5.22
2022-11-04T18:46:53.087Z,5.10
2022-11-04T18:49:22.268Z,4.82
2022-11-04T18:51:50.586Z,5.28
2022-11-04T18:54:20.508Z,5.50
2022-11-04T18:56:48.928Z,7.93
2022-11-04T18:59:19.082Z,7.53
2022-11-04T19:01:47.563Z,5.63
2022-11-04T19:04:16.263Z,5.72
2022-11-04T19:06:46.144Z,4.88
2022-11-04T19:09:45.947Z,4.88
2022-11-04T19:12:24.192Z,5.13
2022-11-04T19:14:54.988Z,5.05
2022-11-04T19:17:24.109Z,5.15
2022-11-04T19:19:52.805Z,5.85
2022-11-04T19:22:21.047Z,9.60
2022-11-04T19:24:49.971Z,7.53
2022-11-04T19:27:19.793Z,6.22
2022-11-04T19:29:49.014Z,7.07
2022-11-04T19:32:18.870Z,4.20
2022-11-04T19:34:47.372Z,4.88
2022-11-04T19:37:15.790Z,5.15
2022-11-04T19:39:44.285Z,4.68
2022-11-04T19:42:31.291Z,4.40
2022-11-04T19:45:00.452Z,6.68
2022-11-04T19:47:30.269Z,6.15
2022-11-04T19:49:58.649Z,9.30
2022-11-04T19:52:27.888Z,8.18
2022-11-04T19:54:57.845Z,8.23
2022-11-04T19:57:27.398Z,7.20
2022-11-04T19:59:55.876Z,7.10
2022-11-04T20:02:24.213Z,7.70
2022-11-04T20:04:54.610Z,6.45
2022-11-04T20:07:22.996Z,9.15
2022-11-04T20:09:51.510Z,6.53
2022-11-04T20:12:36.929Z,6.75
2022-11-04T20:15:05.736Z,5.05
2022-11-04T20:17:34.440Z,4.88
2022-11-04T20:20:05.385Z,5.68
2022-11-04T20:22:33.868Z,6.45
2022-11-04T20:25:02.295Z,5.65
2022-11-04T20:27:31.445Z,8.85
2022-11-04T20:29:59.762Z,7.60
2022-11-04T20:32:28.993Z,8.68
2022-11-04T20:34:57.735Z,8.43
2022-11-04T20:37:28.078Z,7.32
2022-11-04T20:39:56.634Z,8.27
2022-11-04T20:42:24.934Z,6.10
2022-11-04T20:44:53.880Z,5.75
2022-11-04T20:47:22.825Z,5.50
2022-11-04T20:49:52.509Z,5.18
2022-11-04T20:52:21.032Z,6.38
2022-11-04T20:54:51.120Z,6.28
2022-11-04T20:57:20.089Z,5.30
2022-11-04T20:59:48.830Z,7.00
2022-11-04T21:02:17.900Z,5.75
2022-11-04T21:04:46.296Z,6.38
2022-11-04T21:07:16.532Z,5.20
2022-11-04T21:09:45.304Z,5.03
2022-11-04T21:12:17.734Z,5.20
2022-11-04T21:14:49.130Z,4.70
2022-11-04T21:17:17.500Z,5.15
2022-11-04T21:19:49.116Z,3.78
2022-11-04T21:22:19.639Z,4.50
2022-11-04T21:24:49.098Z,4.93
2022-11-04T21:27:18.849Z,3.90
2022-11-04T21:29:47.347Z,4.07
2022-11-04T21:32:16.251Z,5.65
2022-11-04T21:34:47.081Z,3.45
2022-11-04T21:37:16.893Z,6.80
2022-11-04T21:39:51.573Z,4.00
2022-11-04T21:42:22.816Z,3.58
2022-11-04T21:44:52.455Z,3.58
2022-11-04T21:47:22.110Z,4.90
2022-11-04T21:49:52.082Z,3.58
2022-11-04T21:52:21.701Z,3.75
2022-11-04T21:54:51.792Z,3.70
2022-11-04T21:57:27.788Z,3.63
2022-11-04T21:59:59.582Z,3.70
2022-11-04T22:02:38.852Z,3.60
2022-11-04T22:05:13.749Z,3.80
2022-11-04T22:07:59.530Z,4.00
2022-11-04T22:10:30.712Z,3.80
2022-11-04T22:13:01.702Z,4.00
2022-11-04T22:15:49.816Z,3.50
2022-11-04T22:18:18.331Z,3.72
2022-11-04T22:20:55.188Z,4.00
2022-11-04T22:23:25.541Z,3.80
2022-11-04T22:26:07.625Z,2.97
2022-11-04T22:28:39.393Z,3.10
2022-11-04T22:31:09.845Z,3.92
2022-11-04T22:33:39.322Z,3.17
2022-11-04T22:36:15.737Z,3.20
2022-11-04T22:38:45.045Z,3.15
2022-11-04T22:41:20.549Z,3.35
2022-11-04T22:43:51.685Z,2.92
2022-11-04T22:46:30.963Z,3.03
2022-11-04T22:49:00.371Z,2.80
2022-11-04T22:51:31.956Z,3.25
2022-11-04T22:54:06.420Z,2.60
2022-11-04T22:56:42.430Z,2.30
2022-11-04T22:59:19.071Z,2.25
2022-11-04T23:01:48.131Z,2.20
2022-11-04T23:04:18.797Z,1.95
2022-11-04T23:06:49.222Z,2.38
2022-11-04T23:09:18.331Z,1.83
2022-11-04T23:12:16.045Z,2.00
2022-11-04T23:15:03.204Z,1.73
2022-11-04T23:17:48.676Z,1.60
2022-11-04T23:20:18.945Z,1.90
2022-11-04T23:23:06.148Z,1.40
2022-11-04T23:25:35.387Z,1.60
2022-11-04T23:28:27.812Z,1.30
2022-11-04T23:30:59.748Z,1.70
2022-11-04T23:33:41.973Z,1.63
2022-11-04T23:36:25.329Z,1.35
2022-11-04T23:38:53.679Z,1.65
2022-11-04T23:41:40.547Z,1.50
2022-11-04T23:44:29.799Z,1.60
2022-11-04T23:47:17.275Z,1.73
2022-11-04T23:50:02.872Z,1.50
2022-11-04T23:52:55.371Z,1.58
2022-11-04T23:55:41.687Z,1.52
2022-11-04T23:58:28.535Z,1.30
